sensor_id;sensor_type;location;lat;lon;timestamp;pressure;altitude;pressure_sealevel;temperature;humidity
48015;BME280;33780;51.034;7.120;2022-10-22T00:01:33;100258.19;;;14.18;80.53
48015;BME280;33780;51.034;7.120;2022-10-22T00:04:03;100261.72;;;14.19;80.63
48015;BME280;33780;51.034;7.120;2022-10-22T00:06:29;100256.34;;;14.19;80.34
48015;BME280;33780;51.034;7.120;2022-10-22T00:08:54;100248.28;;;14.19;80.62
48015;BME280;33780;51.034;7.120;2022-10-22T00:11:19;100256.34;;;14.19;80.55
48015;BME280;33780;51.034;7.120;2022-10-22T00:13:54;100259.16;;;14.17;80.74
48015;BME280;33780;51.034;7.120;2022-10-22T00:16:25;100253.97;;;14.16;80.49
48015;BME280;33780;51.034;7.120;2022-10-22T00:18:50;100273.81;;;14.15;80.54
48015;BME280;33780;51.034;7.120;2022-10-22T00:21:16;100268.44;;;14.15;80.47
48015;BME280;33780;51.034;7.120;2022-10-22T00:23:42;100260.53;;;14.13;80.56
48015;BME280;33780;51.034;7.120;2022-10-22T00:26:08;100265.91;;;14.13;80.42
48015;BME280;33780;51.034;7.120;2022-10-22T00:28:34;100265.06;;;14.13;80.44
48015;BME280;33780;51.034;7.120;2022-10-22T00:30:59;100267.09;;;14.11;80.77
48015;BME280;33780;51.034;7.120;2022-10-22T00:33:26;100268.09;;;14.10;80.71
48015;BME280;33780;51.034;7.120;2022-10-22T00:35:52;100262.72;;;14.10;80.85
48015;BME280;33780;51.034;7.120;2022-10-22T00:38:17;100269.78;;;14.11;80.87
48015;BME280;33780;51.034;7.120;2022-10-22T00:40:43;100264.56;;;14.09;80.66
48015;BME280;33780;51.034;7.120;2022-10-22T00:43:10;100269.94;;;14.09;80.90
48015;BME280;33780;51.034;7.120;2022-10-22T00:45:36;100259.19;;;14.09;81.00
48015;BME280;33780;51.034;7.120;2022-10-22T00:48:09;100271.78;;;14.09;81.15
48015;BME280;33780;51.034;7.120;2022-10-22T00:50:42;100271.78;;;14.09;81.10
48015;BME280;33780;51.034;7.120;2022-10-22T00:53:14;100266.41;;;14.09;81.29
48015;BME280;33780;51.034;7.120;2022-10-22T00:55:42;100269.09;;;14.09;81.17
48015;BME280;33780;51.034;7.120;2022-10-22T00:58:11;100269.09;;;14.09;81.40
48015;BME280;33780;51.034;7.120;2022-10-22T01:00:37;100260.19;;;14.08;80.88
48015;BME280;33780;51.034;7.120;2022-10-22T01:03:02;100260.19;;;14.08;81.41
48015;BME280;33780;51.034;7.120;2022-10-22T01:05:37;100263.72;;;14.09;81.33
48015;BME280;33780;51.034;7.120;2022-10-22T01:08:04;100264.56;;;14.09;81.40
48015;BME280;33780;51.034;7.120;2022-10-22T01:15:59;100262.38;;;14.05;81.24
48015;BME280;33780;51.034;7.120;2022-10-22T01:19:03;100262.53;;;14.03;81.43
48015;BME280;33780;51.034;7.120;2022-10-22T01:21:44;100248.41;;;14.01;81.46
48015;BME280;33780;51.034;7.120;2022-10-22T01:33:36;100236.44;;;13.96;81.83
48015;BME280;33780;51.034;7.120;2022-10-22T01:36:03;100237.28;;;13.96;81.53
48015;BME280;33780;51.034;7.120;2022-10-22T01:38:29;100230.06;;;13.97;81.60
48015;BME280;33780;51.034;7.120;2022-10-22T01:40:55;100230.06;;;13.97;81.56
48015;BME280;33780;51.034;7.120;2022-10-22T01:43:21;100232.75;;;13.97;81.76
48015;BME280;33780;51.034;7.120;2022-10-22T01:45:49;100238.13;;;13.97;81.41
48015;BME280;33780;51.034;7.120;2022-10-22T01:48:21;100231.06;;;13.96;81.61
48015;BME280;33780;51.034;7.120;2022-10-22T01:50:54;100227.69;;;13.94;81.60
48015;BME280;33780;51.034;7.120;2022-10-22T01:53:39;100239.47;;;13.93;81.55
48015;BME280;33780;51.034;7.120;2022-10-22T02:04:10;100232.56;;;13.90;81.79
48015;BME280;33780;51.034;7.120;2022-10-22T02:06:38;100232.56;;;13.90;81.66
48015;BME280;33780;51.034;7.120;2022-10-22T02:09:06;100241.66;;;13.89;81.44
48015;BME280;33780;51.034;7.120;2022-10-22T02:11:36;100251.56;;;13.88;81.60
48015;BME280;33780;51.034;7.120;2022-10-22T02:14:06;100248.03;;;13.88;81.52
48015;BME280;33780;51.034;7.120;2022-10-22T02:16:37;100240.97;;;13.87;81.59
48015;BME280;33780;51.034;7.120;2022-10-22T02:19:10;100248.22;;;13.86;81.55
48015;BME280;33780;51.034;7.120;2022-10-22T02:21:44;100251.75;;;13.87;81.64
48015;BME280;33780;51.034;7.120;2022-10-22T02:24:12;100249.22;;;13.85;81.55
48015;BME280;33780;51.034;7.120;2022-10-22T02:29:38;100270.06;;;13.83;81.34
48015;BME280;33780;51.034;7.120;2022-10-22T02:32:08;100266.53;;;13.83;81.53
48015;BME280;33780;51.034;7.120;2022-10-22T02:34:35;100259.31;;;13.83;81.49
48015;BME280;33780;51.034;7.120;2022-10-22T02:37:02;100246.84;;;13.82;81.53
48015;BME280;33780;51.034;7.120;2022-10-22T02:39:37;100249.69;;;13.81;81.41
48015;BME280;33780;51.034;7.120;2022-10-22T02:42:03;100250.53;;;13.81;81.83
48015;BME280;33780;51.034;7.120;2022-10-22T02:44:29;100253.22;;;13.81;81.63
48015;BME280;33780;51.034;7.120;2022-10-22T02:46:54;100257.75;;;13.81;81.68
48015;BME280;33780;51.034;7.120;2022-10-22T02:49:20;100264.13;;;13.80;81.88
48015;BME280;33780;51.034;7.120;2022-10-22T02:51:45;100263.31;;;13.79;81.66
48015;BME280;33780;51.034;7.120;2022-10-22T02:54:11;100258.94;;;13.78;81.67
48015;BME280;33780;51.034;7.120;2022-10-22T02:56:41;100257.25;;;13.77;81.33
48015;BME280;33780;51.034;7.120;2022-10-22T02:59:07;100262.13;;;13.74;81.22
48015;BME280;33780;51.034;7.120;2022-10-22T03:01:32;100255.91;;;13.73;81.40
48015;BME280;33780;51.034;7.120;2022-10-22T03:03:57;100255.22;;;13.71;81.64
48015;BME280;33780;51.034;7.120;2022-10-22T03:06:23;100260.09;;;13.68;81.58
48015;BME280;33780;51.034;7.120;2022-10-22T03:08:48;100258.56;;;13.65;81.64
48015;BME280;33780;51.034;7.120;2022-10-22T03:11:13;100266.78;;;13.64;81.67
48015;BME280;33780;51.034;7.120;2022-10-22T03:13:39;100266.94;;;13.62;81.30
48015;BME280;33780;51.034;7.120;2022-10-22T03:16:04;100264.25;;;13.62;81.15
48015;BME280;33780;51.034;7.120;2022-10-22T03:18:30;100262.72;;;13.59;80.96
48015;BME280;33780;51.034;7.120;2022-10-22T03:21:10;100270.13;;;13.57;80.73
48015;BME280;33780;51.034;7.120;2022-10-22T03:23:39;100263.38;;;13.53;80.87
48015;BME280;33780;51.034;7.120;2022-10-22T03:26:07;100267.25;;;13.51;80.56
48015;BME280;33780;51.034;7.120;2022-10-22T03:28:34;100266.56;;;13.49;80.70
48015;BME280;33780;51.034;7.120;2022-10-22T03:31:00;100263.22;;;13.47;80.88
48015;BME280;33780;51.034;7.120;2022-10-22T03:33:25;100268.72;;;13.45;80.40
48015;BME280;33780;51.034;7.120;2022-10-22T03:35:51;100266.19;;;13.44;80.42
48015;BME280;33780;51.034;7.120;2022-10-22T03:38:16;100271.91;;;13.41;80.40
48015;BME280;33780;51.034;7.120;2022-10-22T03:40:43;100271.22;;;13.39;80.60
48015;BME280;33780;51.034;7.120;2022-10-22T03:43:08;100277.75;;;13.36;80.59
48015;BME280;33780;51.034;7.120;2022-10-22T03:45:34;100278.94;;;13.34;80.37
48015;BME280;33780;51.034;7.120;2022-10-22T03:47:59;100267.50;;;13.32;80.22
48015;BME280;33780;51.034;7.120;2022-10-22T03:50:24;100274.88;;;13.29;79.99
48015;BME280;33780;51.034;7.120;2022-10-22T03:52:50;100272.31;;;13.28;80.02
48015;BME280;33780;51.034;7.120;2022-10-22T03:55:15;100286.09;;;13.25;80.10
48015;BME280;33780;51.034;7.120;2022-10-22T03:57:40;100284.56;;;13.22;79.92
48015;BME280;33780;51.034;7.120;2022-10-22T04:00:06;100285.56;;;13.21;80.09
48015;BME280;33780;51.034;7.120;2022-10-22T04:02:32;100286.72;;;13.19;80.13
48015;BME280;33780;51.034;7.120;2022-10-22T04:04:57;100285.19;;;13.16;79.99
48015;BME280;33780;51.034;7.120;2022-10-22T04:07:22;100294.25;;;13.15;79.69
48015;BME280;33780;51.034;7.120;2022-10-22T04:09:48;100288.19;;;13.13;80.15
48015;BME280;33780;51.034;7.120;2022-10-22T04:12:13;100289.19;;;13.12;80.11
48015;BME280;33780;51.034;7.120;2022-10-22T04:14:38;100300.94;;;13.11;80.13
48015;BME280;33780;51.034;7.120;2022-10-22T04:17:04;100290.31;;;13.10;80.31
48015;BME280;33780;51.034;7.120;2022-10-22T04:19:29;100299.38;;;13.09;80.23
48015;BME280;33780;51.034;7.120;2022-10-22T04:21:57;100302.91;;;13.09;80.31
48015;BME280;33780;51.034;7.120;2022-10-22T04:24:23;100297.72;;;13.08;80.35
48015;BME280;33780;51.034;7.120;2022-10-22T04:26:54;100303.25;;;13.06;79.97
48015;BME280;33780;51.034;7.120;2022-10-22T04:29:23;100305.94;;;13.06;80.30
48015;BME280;33780;51.034;7.120;2022-10-22T04:31:48;100306.25;;;13.03;80.24
48015;BME280;33780;51.034;7.120;2022-10-22T04:34:14;100312.31;;;13.05;80.21
48015;BME280;33780;51.034;7.120;2022-10-22T04:36:39;100308.94;;;13.03;80.32
48015;BME280;33780;51.034;7.120;2022-10-22T04:39:05;100316.00;;;13.04;80.04
48015;BME280;33780;51.034;7.120;2022-10-22T04:41:33;100312.63;;;13.02;80.29
48015;BME280;33780;51.034;7.120;2022-10-22T04:43:59;100319.84;;;13.01;80.50
48015;BME280;33780;51.034;7.120;2022-10-22T04:46:27;100318.16;;;13.00;80.32
48015;BME280;33780;51.034;7.120;2022-10-22T04:48:52;100313.47;;;13.02;80.54
48015;BME280;33780;51.034;7.120;2022-10-22T04:51:21;100318.84;;;13.02;80.77
48015;BME280;33780;51.034;7.120;2022-10-22T04:53:47;100315.31;;;13.02;80.23
48015;BME280;33780;51.034;7.120;2022-10-22T04:56:15;100321.69;;;13.01;80.59
48015;BME280;33780;51.034;7.120;2022-10-22T04:58:41;100323.53;;;13.00;80.75
48015;BME280;33780;51.034;7.120;2022-10-22T05:01:20;100326.38;;;12.99;80.48
48015;BME280;33780;51.034;7.120;2022-10-22T05:03:47;100338.13;;;12.98;80.33
48015;BME280;33780;51.034;7.120;2022-10-22T05:06:14;100331.06;;;12.97;80.60
48015;BME280;33780;51.034;7.120;2022-10-22T05:08:40;100334.75;;;12.96;80.77
48015;BME280;33780;51.034;7.120;2022-10-22T05:11:26;100341.13;;;12.95;80.27
48015;BME280;33780;51.034;7.120;2022-10-22T05:13:54;100350.19;;;12.94;80.29
48015;BME280;33780;51.034;7.120;2022-10-22T05:16:19;100346.78;;;12.92;80.45
48015;BME280;33780;51.034;7.120;2022-10-22T05:18:44;100341.56;;;12.90;79.75
48015;BME280;33780;51.034;7.120;2022-10-22T05:21:16;100348.94;;;12.88;80.08
48015;BME280;33780;51.034;7.120;2022-10-22T05:23:42;100351.78;;;12.87;79.97
48015;BME280;33780;51.034;7.120;2022-10-22T05:26:09;100346.72;;;12.84;79.53
48015;BME280;33780;51.034;7.120;2022-10-22T05:28:35;100346.03;;;12.82;79.61
48015;BME280;33780;51.034;7.120;2022-10-22T05:31:01;100355.25;;;12.79;79.66
48015;BME280;33780;51.034;7.120;2022-10-22T05:33:28;100353.88;;;12.75;79.43
48015;BME280;33780;51.034;7.120;2022-10-22T05:35:54;100359.38;;;12.74;79.56
48015;BME280;33780;51.034;7.120;2022-10-22T05:38:19;100357.84;;;12.71;79.60
48015;BME280;33780;51.034;7.120;2022-10-22T05:40:45;100364.38;;;12.68;79.60
48015;BME280;33780;51.034;7.120;2022-10-22T05:43:11;100378.81;;;12.67;79.75
48015;BME280;33780;51.034;7.120;2022-10-22T05:45:41;100373.59;;;12.66;79.55
48015;BME280;33780;51.034;7.120;2022-10-22T05:48:09;100379.13;;;12.64;79.75
48015;BME280;33780;51.034;7.120;2022-10-22T05:50:38;100372.38;;;12.60;79.19
48015;BME280;33780;51.034;7.120;2022-10-22T05:53:04;100382.25;;;12.60;79.36
48015;BME280;33780;51.034;7.120;2022-10-22T05:55:34;100380.75;;;12.57;79.16
48015;BME280;33780;51.034;7.120;2022-10-22T05:58:04;100388.06;;;12.55;79.26
48015;BME280;33780;51.034;7.120;2022-10-22T06:00:29;100401.50;;;12.55;79.62
48015;BME280;33780;51.034;7.120;2022-10-22T06:02:55;100399.13;;;12.52;79.34
48015;BME280;33780;51.034;7.120;2022-10-22T06:05:20;100393.91;;;12.51;79.03
48015;BME280;33780;51.034;7.120;2022-10-22T06:07:45;100399.44;;;12.49;79.24
48015;BME280;33780;51.034;7.120;2022-10-22T06:10:19;100405.09;;;12.46;79.05
48015;BME280;33780;51.034;7.120;2022-10-22T06:12:51;100406.94;;;12.46;79.11
48015;BME280;33780;51.034;7.120;2022-10-22T06:18:25;100413.47;;;12.43;79.10
48015;BME280;33780;51.034;7.120;2022-10-22T06:24:09;100421.66;;;12.42;79.28
48015;BME280;33780;51.034;7.120;2022-10-22T06:26:43;100431.41;;;12.43;79.40
48015;BME280;33780;51.034;7.120;2022-10-22T06:29:26;100435.78;;;12.44;79.45
48015;BME280;33780;51.034;7.120;2022-10-22T06:31:51;100434.78;;;12.45;79.93
48015;BME280;33780;51.034;7.120;2022-10-22T06:34:19;100441.00;;;12.45;79.68
48015;BME280;33780;51.034;7.120;2022-10-22T06:36:45;100447.06;;;12.47;79.92
48015;BME280;33780;51.034;7.120;2022-10-22T06:39:14;100445.06;;;12.49;80.06
48015;BME280;33780;51.034;7.120;2022-10-22T06:41:43;100454.78;;;12.50;79.97
48015;BME280;33780;51.034;7.120;2022-10-22T06:44:14;100457.03;;;12.55;80.31
48015;BME280;33780;51.034;7.120;2022-10-22T06:50:27;100454.75;;;12.60;80.53
48015;BME280;33780;51.034;7.120;2022-10-22T06:52:52;100459.81;;;12.63;80.36
48015;BME280;33780;51.034;7.120;2022-10-22T06:55:18;100460.50;;;12.65;80.65
48015;BME280;33780;51.034;7.120;2022-10-22T06:57:55;100471.09;;;12.66;80.93
48015;BME280;33780;51.034;7.120;2022-10-22T07:00:36;100468.25;;;12.68;80.68
48015;BME280;33780;51.034;7.120;2022-10-22T07:03:22;100471.63;;;12.70;80.49
48015;BME280;33780;51.034;7.120;2022-10-22T07:05:58;100475.16;;;12.70;80.75
48015;BME280;33780;51.034;7.120;2022-10-22T07:08:24;100482.19;;;12.71;80.48
48015;BME280;33780;51.034;7.120;2022-10-22T07:11:04;100477.69;;;12.72;81.06
48015;BME280;33780;51.034;7.120;2022-10-22T07:13:40;100481.22;;;12.73;80.72
48015;BME280;33780;51.034;7.120;2022-10-22T07:16:08;100485.59;;;12.74;80.78
48015;BME280;33780;51.034;7.120;2022-10-22T07:18:42;100491.78;;;12.74;81.01
48015;BME280;33780;51.034;7.120;2022-10-22T07:21:17;100495.19;;;12.76;80.79
48015;BME280;33780;51.034;7.120;2022-10-22T07:23:47;100492.38;;;12.78;81.16
48015;BME280;33780;51.034;7.120;2022-10-22T07:26:21;100497.72;;;12.78;81.10
48015;BME280;33780;51.034;7.120;2022-10-22T07:28:49;100496.59;;;12.80;81.26
48015;BME280;33780;51.034;7.120;2022-10-22T07:31:16;100499.97;;;12.82;81.19
48015;BME280;33780;51.034;7.120;2022-10-22T07:33:42;100496.13;;;12.85;81.17
48015;BME280;33780;51.034;7.120;2022-10-22T07:36:11;100494.97;;;12.87;81.13
48015;BME280;33780;51.034;7.120;2022-10-22T07:38:41;100501.19;;;12.88;81.29
48015;BME280;33780;51.034;7.120;2022-10-22T07:41:06;100504.56;;;12.90;81.20
48015;BME280;33780;51.034;7.120;2022-10-22T07:43:31;100507.81;;;12.93;81.26
48015;BME280;33780;51.034;7.120;2022-10-22T07:45:56;100517.41;;;12.96;81.50
48015;BME280;33780;51.034;7.120;2022-10-22T07:48:23;100518.94;;;12.98;81.59
48015;BME280;33780;51.034;7.120;2022-10-22T07:50:50;100523.16;;;13.01;81.69
48015;BME280;33780;51.034;7.120;2022-10-22T07:53:15;100530.59;;;13.07;81.68
48015;BME280;33780;51.034;7.120;2022-10-22T07:55:40;100534.53;;;13.13;81.98
48015;BME280;33780;51.034;7.120;2022-10-22T07:58:06;100531.38;;;13.17;82.05
48015;BME280;33780;51.034;7.120;2022-10-22T08:00:57;100542.38;;;13.24;82.28
48015;BME280;33780;51.034;7.120;2022-10-22T08:03:24;100538.53;;;13.26;82.31
48015;BME280;33780;51.034;7.120;2022-10-22T08:05:55;100537.94;;;13.33;82.54
48015;BME280;33780;51.034;7.120;2022-10-22T08:08:21;100546.06;;;13.41;82.75
48015;BME280;33780;51.034;7.120;2022-10-22T08:10:50;100549.00;;;13.47;83.21
48015;BME280;33780;51.034;7.120;2022-10-22T08:13:20;100550.59;;;13.58;83.82
48015;BME280;33780;51.034;7.120;2022-10-22T08:15:45;100548.50;;;13.70;84.40
48015;BME280;33780;51.034;7.120;2022-10-22T08:18:13;100554.47;;;13.81;85.33
48015;BME280;33780;51.034;7.120;2022-10-22T08:20:41;100554.91;;;13.95;85.49
48015;BME280;33780;51.034;7.120;2022-10-22T08:23:07;100553.66;;;14.07;86.19
48015;BME280;33780;51.034;7.120;2022-10-22T08:25:32;100556.06;;;14.18;86.12
48015;BME280;33780;51.034;7.120;2022-10-22T08:27:58;100556.81;;;14.28;86.17
48015;BME280;33780;51.034;7.120;2022-10-22T08:30:29;100564.94;;;14.36;86.36
48015;BME280;33780;51.034;7.120;2022-10-22T08:32:58;100566.84;;;14.44;86.37
48015;BME280;33780;51.034;7.120;2022-10-22T08:35:32;100570.75;;;14.49;86.27
48015;BME280;33780;51.034;7.120;2022-10-22T08:37:58;100573.66;;;14.56;86.42
48015;BME280;33780;51.034;7.120;2022-10-22T08:40:34;100576.53;;;14.63;86.29
48015;BME280;33780;51.034;7.120;2022-10-22T08:49:02;100589.25;;;14.78;86.42
48015;BME280;33780;51.034;7.120;2022-10-22T08:51:33;100590.94;;;14.79;86.54
48015;BME280;33780;51.034;7.120;2022-10-22T08:54:21;100585.38;;;14.81;86.44
48015;BME280;33780;51.034;7.120;2022-10-22T08:57:11;100598.69;;;14.82;86.47
48015;BME280;33780;51.034;7.120;2022-10-22T09:07:47;100613.38;;;14.96;86.58
48015;BME280;33780;51.034;7.120;2022-10-22T09:10:17;100614.59;;;15.02;86.43
48015;BME280;33780;51.034;7.120;2022-10-22T09:12:47;100620.47;;;15.05;86.53
48015;BME280;33780;51.034;7.120;2022-10-22T09:15:14;100620.03;;;15.10;86.39
48015;BME280;33780;51.034;7.120;2022-10-22T09:17:54;100619.34;;;15.16;86.25
48015;BME280;33780;51.034;7.120;2022-10-22T09:23:38;100628.16;;;15.26;86.36
48015;BME280;33780;51.034;7.120;2022-10-22T09:26:16;100631.53;;;15.28;86.28
48015;BME280;33780;51.034;7.120;2022-10-22T09:28:42;100634.75;;;15.32;86.20
48015;BME280;33780;51.034;7.120;2022-10-22T09:31:13;100629.00;;;15.35;86.15
48015;BME280;33780;51.034;7.120;2022-10-22T09:33:40;100633.22;;;15.37;86.05
48015;BME280;33780;51.034;7.120;2022-10-22T09:36:06;100636.44;;;15.41;86.13
48015;BME280;33780;51.034;7.120;2022-10-22T09:38:40;100637.94;;;15.43;86.05
48015;BME280;33780;51.034;7.120;2022-10-22T09:41:08;100637.81;;;15.45;85.67
48015;BME280;33780;51.034;7.120;2022-10-22T09:43:36;100642.19;;;15.46;85.51
48015;BME280;33780;51.034;7.120;2022-10-22T09:46:06;100642.69;;;15.50;85.62
48015;BME280;33780;51.034;7.120;2022-10-22T09:48:36;100640.84;;;15.50;85.59
48015;BME280;33780;51.034;7.120;2022-10-22T09:51:56;100643.22;;;15.53;85.32
48015;BME280;33780;51.034;7.120;2022-10-22T09:54:20;100645.06;;;15.53;85.26
48015;BME280;33780;51.034;7.120;2022-10-22T09:56:53;100646.59;;;15.55;85.12
48015;BME280;33780;51.034;7.120;2022-10-22T09:59:26;100648.25;;;15.56;84.90
48015;BME280;33780;51.034;7.120;2022-10-22T10:02:08;100648.25;;;15.56;85.03
48015;BME280;33780;51.034;7.120;2022-10-22T10:04:41;100650.78;;;15.58;84.95
48015;BME280;33780;51.034;7.120;2022-10-22T10:07:29;100653.34;;;15.59;84.93
48015;BME280;33780;51.034;7.120;2022-10-22T10:09:56;100663.97;;;15.61;84.84
48015;BME280;33780;51.034;7.120;2022-10-22T10:12:34;100661.28;;;15.61;84.98
48015;BME280;33780;51.034;7.120;2022-10-22T10:15:26;100660.31;;;15.62;84.72
48015;BME280;33780;51.034;7.120;2022-10-22T10:21:03;100661.81;;;15.64;84.78
48015;BME280;33780;51.034;7.120;2022-10-22T10:26:31;100677.66;;;15.67;84.34
48015;BME280;33780;51.034;7.120;2022-10-22T10:34:47;100678.50;;;15.68;84.19
48015;BME280;33780;51.034;7.120;2022-10-22T10:37:32;100684.75;;;15.68;84.06
48015;BME280;33780;51.034;7.120;2022-10-22T10:43:28;100700.94;;;15.68;83.97
48015;BME280;33780;51.034;7.120;2022-10-22T10:54:20;100699.09;;;15.69;83.86
48015;BME280;33780;51.034;7.120;2022-10-22T10:56:57;100707.00;;;15.70;83.94
48015;BME280;33780;51.034;7.120;2022-10-22T10:59:38;100700.78;;;15.70;84.03
48015;BME280;33780;51.034;7.120;2022-10-22T11:07:46;100700.44;;;15.73;83.81
48015;BME280;33780;51.034;7.120;2022-10-22T11:13:37;100713.59;;;15.76;83.83
48015;BME280;33780;51.034;7.120;2022-10-22T11:16:28;100718.81;;;15.78;83.84
48015;BME280;33780;51.034;7.120;2022-10-22T11:19:37;100718.50;;;15.81;83.08
48015;BME280;33780;51.034;7.120;2022-10-22T11:22:17;100713.78;;;15.83;83.07
48015;BME280;33780;51.034;7.120;2022-10-22T11:24:52;100711.59;;;15.86;82.87
48015;BME280;33780;51.034;7.120;2022-10-22T11:27:39;100712.09;;;15.90;82.38
48015;BME280;33780;51.034;7.120;2022-10-22T11:30:21;100708.91;;;15.94;81.98
48015;BME280;33780;51.034;7.120;2022-10-22T11:33:03;100709.44;;;15.98;81.64
48015;BME280;33780;51.034;7.120;2022-10-22T11:35:44;100713.66;;;16.00;81.74
48015;BME280;33780;51.034;7.120;2022-10-22T11:38:16;100719.56;;;16.04;81.47
48015;BME280;33780;51.034;7.120;2022-10-22T11:40:50;100714.66;;;16.08;81.12
48015;BME280;33780;51.034;7.120;2022-10-22T11:43:29;100716.34;;;16.09;80.93
48015;BME280;33780;51.034;7.120;2022-10-22T11:49:26;100720.56;;;16.11;80.20
48015;BME280;33780;51.034;7.120;2022-10-22T11:54:59;100710.94;;;16.09;79.34
48015;BME280;33780;51.034;7.120;2022-10-22T11:57:36;100716.34;;;16.09;79.50
48015;BME280;33780;51.034;7.120;2022-10-22T12:03:23;100717.19;;;16.09;78.67
48015;BME280;33780;51.034;7.120;2022-10-22T12:09:16;100711.78;;;16.09;78.61
48015;BME280;33780;51.034;7.120;2022-10-22T12:14:24;100709.09;;;16.09;78.40
48015;BME280;33780;51.034;7.120;2022-10-22T12:17:13;100708.06;;;16.10;78.30
48015;BME280;33780;51.034;7.120;2022-10-22T12:19:44;100716.00;;;16.12;78.11
48015;BME280;33780;51.034;7.120;2022-10-22T12:22:15;100712.13;;;16.14;78.12
48015;BME280;33780;51.034;7.120;2022-10-22T12:24:49;100699.16;;;16.18;77.71
48015;BME280;33780;51.034;7.120;2022-10-22T12:29:54;100701.84;;;16.26;77.07
48015;BME280;33780;51.034;7.120;2022-10-22T12:32:35;100704.88;;;16.31;76.95
48015;BME280;33780;51.034;7.120;2022-10-22T12:35:21;100701.69;;;16.36;77.14
48015;BME280;33780;51.034;7.120;2022-10-22T12:38:11;100702.19;;;16.39;77.48
48015;BME280;33780;51.034;7.120;2022-10-22T12:40:39;100695.41;;;16.43;77.00
48015;BME280;33780;51.034;7.120;2022-10-22T12:43:24;100696.94;;;16.46;76.73
48015;BME280;33780;51.034;7.120;2022-10-22T12:45:53;100701.16;;;16.48;76.83
48015;BME280;33780;51.034;7.120;2022-10-22T12:48:23;100690.00;;;16.51;75.99
48015;BME280;33780;51.034;7.120;2022-10-22T12:50:54;100690.53;;;16.55;76.16
48015;BME280;33780;51.034;7.120;2022-10-22T12:53:53;100688.81;;;16.62;76.33
48015;BME280;33780;51.034;7.120;2022-10-22T12:56:36;100685.44;;;16.68;76.06
48015;BME280;33780;51.034;7.120;2022-10-22T12:59:54;100674.44;;;16.78;75.86
48015;BME280;33780;51.034;7.120;2022-10-22T13:02:22;100682.19;;;16.89;75.94
48015;BME280;33780;51.034;7.120;2022-10-22T13:05:21;100663.91;;;16.99;75.87
48015;BME280;33780;51.034;7.120;2022-10-22T13:08:19;100656.25;;;17.11;75.62
48015;BME280;33780;51.034;7.120;2022-10-22T13:10:50;100658.91;;;17.19;75.06
48015;BME280;33780;51.034;7.120;2022-10-22T13:16:18;100661.38;;;17.37;74.41
48015;BME280;33780;51.034;7.120;2022-10-22T13:18:45;100650.69;;;17.43;73.72
48015;BME280;33780;51.034;7.120;2022-10-22T13:21:40;100661.81;;;17.48;73.12
48015;BME280;33780;51.034;7.120;2022-10-22T13:24:24;100660.63;;;17.51;70.81
48015;BME280;33780;51.034;7.120;2022-10-22T13:26:52;100668.00;;;17.57;71.74
48015;BME280;33780;51.034;7.120;2022-10-22T13:29:27;100665.66;;;17.54;71.54
48015;BME280;33780;51.034;7.120;2022-10-22T13:31:59;100671.44;;;17.51;71.10
48015;BME280;33780;51.034;7.120;2022-10-22T13:34:34;100672.63;;;17.48;70.77
48015;BME280;33780;51.034;7.120;2022-10-22T13:37:07;100680.75;;;17.48;71.04
48015;BME280;33780;51.034;7.120;2022-10-22T13:39:40;100668.72;;;17.51;70.75
48015;BME280;33780;51.034;7.120;2022-10-22T13:45:33;100664.69;;;17.47;71.35
48015;BME280;33780;51.034;7.120;2022-10-22T13:48:22;100669.63;;;17.43;70.67
48015;BME280;33780;51.034;7.120;2022-10-22T13:50:57;100671.66;;;17.41;70.92
48015;BME280;33780;51.034;7.120;2022-10-22T13:53:37;100675.03;;;17.43;71.27
48015;BME280;33780;51.034;7.120;2022-10-22T13:56:06;100672.63;;;17.48;71.04
48015;BME280;33780;51.034;7.120;2022-10-22T14:01:52;100678.91;;;17.49;70.49
48015;BME280;33780;51.034;7.120;2022-10-22T14:07:51;100671.63;;;17.49;71.42
48015;BME280;33780;51.034;7.120;2022-10-22T14:10:35;100680.22;;;17.53;71.65
48015;BME280;33780;51.034;7.120;2022-10-22T14:15:55;100679.00;;;17.56;71.33
48015;BME280;33780;51.034;7.120;2022-10-22T14:18:23;100673.44;;;17.57;71.28
48015;BME280;33780;51.034;7.120;2022-10-22T14:20:53;100676.97;;;17.58;71.31
48015;BME280;33780;51.034;7.120;2022-10-22T14:23:20;100674.97;;;17.60;71.36
48015;BME280;33780;51.034;7.120;2022-10-22T14:25:46;100677.97;;;17.65;71.29
48015;BME280;33780;51.034;7.120;2022-10-22T14:28:12;100666.81;;;17.68;71.14
48015;BME280;33780;51.034;7.120;2022-10-22T14:30:38;100667.66;;;17.68;71.33
48015;BME280;33780;51.034;7.120;2022-10-22T14:35:47;100672.38;;;17.66;71.80
48015;BME280;33780;51.034;7.120;2022-10-22T14:38:12;100680.00;;;17.63;71.38
48015;BME280;33780;51.034;7.120;2022-10-22T14:40:38;100680.19;;;17.61;71.72
48015;BME280;33780;51.034;7.120;2022-10-22T14:43:06;100678.66;;;17.59;71.80
48015;BME280;33780;51.034;7.120;2022-10-22T14:45:31;100679.00;;;17.56;72.03
48015;BME280;33780;51.034;7.120;2022-10-22T14:47:56;100684.59;;;17.54;71.94
48015;BME280;33780;51.034;7.120;2022-10-22T14:50:23;100691.22;;;17.51;71.97
48015;BME280;33780;51.034;7.120;2022-10-22T14:52:49;100688.88;;;17.48;72.06
48015;BME280;33780;51.034;7.120;2022-10-22T14:55:15;100689.91;;;17.47;72.50
48015;BME280;33780;51.034;7.120;2022-10-22T14:57:41;100693.63;;;17.46;72.74
48015;BME280;33780;51.034;7.120;2022-10-22T15:00:10;100684.84;;;17.44;72.93
48015;BME280;33780;51.034;7.120;2022-10-22T15:02:45;100692.13;;;17.44;73.26
48015;BME280;33780;51.034;7.120;2022-10-22T15:05:11;100692.31;;;17.42;73.92
48015;BME280;33780;51.034;7.120;2022-10-22T15:07:37;100684.34;;;17.41;74.16
48015;BME280;33780;51.034;7.120;2022-10-22T15:10:04;100692.63;;;17.39;74.31
48015;BME280;33780;51.034;7.120;2022-10-22T15:12:29;100689.09;;;17.39;74.45